Weather History for Jamestown, NY

Change the Weather History Date:

Saturday, January 25, 2014

  Actual Average Record
Temperature  
Mean Temperature 14 °F -  
Max Temperature 21 °F 34 °F 59 °F (1989)
Min Temperature 6 °F 14 °F -6 °F (1991)
Degree Days  
Heating Degree Days 52    
Moisture  
Dew Point 9 °F    
Average Humidity 79    
Maximum Humidity 93    
Minimum Humidity 53    
Precipitation  
Precipitation 0.00 in - - ()
Sea Level Pressure  
Sea Level Pressure 29.37 in    
Wind  
Wind Speed 15 mph (SW)    
Max Wind Speed 21 mph    
Max Gust Speed 31 mph    
Visibility 3 miles    
Events      
Averages and records for this station are not official NWS values.
T = Trace of Precipitation, MM = Missing Value Source: NWS Daily Summary

Daily Weather History Graph

Daily Weather History Graph

Search for Another Location

Airport:

Trip Planner

Search our weather history database for the weather conditions in past years. The results will help you decide how hot, cold, wet, or windy it might be!

Date:

Astronomy

Jan. 25, 2014 Rise Set
Actual Time 7:36 AM EST 5:22 PM EST
Civil Twilight 7:06 AM EST 5:52 PM EST
Nautical Twilight 6:32 AM EST 6:26 PM EST
Astronomical Twilight 5:59 AM EST 6:59 PM EST
Moon 2:06 AM EST (1/25) 12:22 PM EST (1/25)
Length of Visible Light 10h 46m
Length of Day
9h 46m
Waning Crescent, 34% of the Moon is Illuminated
Jan 25
Waning Crescent
Jan 30
New
Feb 6
First Quarter
Feb 14
Full
Feb 22
Last Quarter

Hourly Weather History & Observations

Time (EST) Temp. Windchill Dew Point Humidity Pressure Visibility Wind Dir Wind Speed Gust Speed Precip Events Conditions
12:15 AM 12.2 °F -4.3 °F -2.2 °F 53% 29.60 in 10.0 mi SSW 16.1 mph 21.9 mph N/A   Overcast
12:35 AM 12.2 °F -3.7 °F -2.2 °F 53% 29.59 in 10.0 mi SSW 15.0 mph 20.7 mph N/A   Overcast
12:55 AM 12.2 °F -3.1 °F -2.2 °F 53% 29.57 in 10.0 mi SSW 13.8 mph 20.7 mph N/A   Overcast
1:15 AM 12.2 °F -3.1 °F -0.4 °F 57% 29.56 in 10.0 mi SSW 13.8 mph 21.9 mph N/A   Overcast
1:35 AM 14.0 °F -1.4 °F -0.4 °F 53% 29.54 in 10.0 mi SSW 15.0 mph 26.5 mph N/A   Overcast
1:55 AM 14.0 °F -1.4 °F -0.4 °F 53% 29.53 in 9.0 mi SSW 15.0 mph 31.1 mph N/A   Overcast
2:15 AM 14.0 °F -3.4 °F 1.4 °F 57% 29.52 in 3.0 mi SSW 19.6 mph 26.5 mph N/A   Overcast
2:35 AM 12.2 °F -3.7 °F 8.6 °F 85% 29.52 in 1.2 mi SSW 15.0 mph 23.0 mph N/A   Overcast
2:55 AM 12.2 °F -3.7 °F 8.6 °F 85% 29.51 in 1.5 mi SSW 15.0 mph 25.3 mph N/A   Overcast
3:15 AM 12.2 °F -3.1 °F 8.6 °F 85% 29.49 in 1.2 mi SSW 13.8 mph 21.9 mph N/A   Overcast
3:35 AM 12.2 °F -3.7 °F 8.6 °F 85% 29.47 in 1.8 mi SSW 15.0 mph 20.7 mph N/A   Overcast
3:55 AM 12.2 °F -3.1 °F 8.6 °F 85% 29.45 in 1.5 mi SSW 13.8 mph 20.7 mph N/A   Overcast
4:15 AM 12.2 °F -5.8 °F 8.6 °F 85% 29.44 in 1.5 mi SSW 19.6 mph 25.3 mph N/A   Overcast
4:35 AM 12.2 °F -3.7 °F 8.6 °F 85% 29.42 in 1.8 mi SSW 15.0 mph 23.0 mph N/A   Overcast
4:55 AM 12.2 °F -3.7 °F 8.6 °F 85% 29.41 in 1.8 mi SSW 15.0 mph 21.9 mph N/A   Overcast
5:15 AM 14.0 °F -3.0 °F 8.6 °F 79% 29.40 in 2.0 mi SSW 18.4 mph 26.5 mph N/A   Overcast
5:35 AM 14.0 °F -3.0 °F 10.4 °F 86% 29.39 in 1.8 mi SSW 18.4 mph 28.8 mph N/A   Overcast
5:55 AM 14.0 °F -2.5 °F 10.4 °F 86% 29.38 in 1.5 mi SSW 17.3 mph 26.5 mph N/A   Overcast
6:15 AM 14.0 °F -3.0 °F 10.4 °F 86% 29.37 in 1.2 mi SSW 18.4 mph 27.6 mph N/A   Overcast
6:35 AM 15.8 °F -0.6 °F 10.4 °F 79% 29.37 in 1.8 mi SSW 18.4 mph 26.5 mph N/A   Overcast
6:55 AM 15.8 °F -1.5 °F 10.4 °F 79% 29.36 in 1.8 mi SSW 20.7 mph 29.9 mph N/A   Overcast
7:15 AM 15.8 °F -1.5 °F 10.4 °F 79% 29.35 in 1.5 mi SSW 20.7 mph 29.9 mph N/A   Overcast
7:35 AM 15.8 °F -0.2 °F 10.4 °F 79% 29.34 in 1.0 mi SSW 17.3 mph 27.6 mph N/A   Overcast
7:55 AM 15.8 °F -1.1 °F 10.4 °F 79% 29.33 in 1.0 mi SSW 19.6 mph 26.5 mph N/A   Overcast
8:15 AM 15.8 °F 0.3 °F 10.4 °F 79% 29.33 in 1.0 mi SSW 16.1 mph 23.0 mph N/A   Overcast
8:35 AM 15.8 °F 1.4 °F 12.2 °F 86% 29.33 in 1.2 mi SSW 13.8 mph 23.0 mph N/A   Overcast
8:55 AM 15.8 °F 0.9 °F 12.2 °F 86% 29.32 in 0.8 mi SSW 15.0 mph 24.2 mph N/A   Overcast
9:15 AM 15.8 °F 0.9 °F 12.2 °F 86% 29.31 in 0.5 mi SSW 15.0 mph 25.3 mph N/A   Overcast
9:35 AM 15.8 °F 1.4 °F 12.2 °F 86% 29.30 in 0.8 mi SSW 13.8 mph 23.0 mph N/A   Overcast
9:55 AM 17.6 °F 3.2 °F 12.2 °F 79% 29.29 in 1.0 mi SSW 15.0 mph 21.9 mph N/A   Overcast
10:15 AM 17.6 °F 3.2 °F 12.2 °F 79% 29.29 in 0.8 mi SSW 15.0 mph 19.6 mph N/A   Overcast
10:35 AM 17.6 °F 3.2 °F 12.2 °F 79% 29.29 in 1.0 mi SSW 15.0 mph 20.7 mph N/A   Overcast
10:55 AM 17.6 °F 3.2 °F 12.2 °F 79% 29.28 in 1.0 mi SSW 15.0 mph 24.2 mph N/A   Overcast
11:15 AM 17.6 °F 2.7 °F 12.2 °F 79% 29.27 in 1.0 mi SSW 16.1 mph 24.2 mph N/A   Overcast
11:35 AM 17.6 °F 3.7 °F 14.0 °F 86% 29.26 in 0.8 mi SSW 13.8 mph 21.9 mph N/A   Overcast
11:55 AM 19.4 °F 5.5 °F 14.0 °F 80% 29.25 in 0.8 mi SSW 15.0 mph 26.5 mph N/A   Overcast
12:15 PM 19.4 °F 6.0 °F 14.0 °F 80% 29.24 in 0.8 mi SSW 13.8 mph 24.2 mph N/A   Overcast
12:35 PM 19.4 °F 6.6 °F 15.8 °F 86% 29.22 in 0.8 mi SSW 12.7 mph 21.9 mph N/A   Overcast
12:55 PM 19.4 °F 7.2 °F 15.8 °F 86% 29.22 in 0.8 mi SSW 11.5 mph 18.4 mph N/A   Overcast
1:15 PM 19.4 °F 6.0 °F 15.8 °F 86% 29.21 in 1.0 mi SW 13.8 mph 19.6 mph N/A   Overcast
1:35 PM 19.4 °F 5.0 °F 15.8 °F 86% 29.20 in 1.0 mi SSW 16.1 mph 23.0 mph N/A   Overcast
1:55 PM 19.4 °F 7.2 °F 15.8 °F 86% 29.20 in 1.0 mi SSW 11.5 mph 16.1 mph N/A   Overcast
2:15 PM 19.4 °F 7.2 °F 15.8 °F 86% 29.19 in 0.8 mi SW 11.5 mph 17.3 mph N/A   Overcast
2:35 PM 19.4 °F 7.9 °F 17.6 °F 93% 29.19 in 0.8 mi SSW 10.4 mph - N/A   Overcast
2:55 PM 19.4 °F 7.2 °F 17.6 °F 93% 29.19 in 0.8 mi SW 11.5 mph 18.4 mph N/A   Overcast
3:15 PM 21.2 °F 10.1 °F 17.6 °F 86% 29.19 in 0.8 mi SW 10.4 mph 16.1 mph N/A   Overcast
3:35 PM 21.2 °F 9.5 °F 17.6 °F 86% 29.20 in 2.5 mi SW 11.5 mph 17.3 mph N/A   Overcast
3:55 PM 21.2 °F 10.9 °F 17.6 °F 86% 29.20 in 0.8 mi SW 9.2 mph - N/A   Overcast
4:15 PM 21.2 °F 10.9 °F 17.6 °F 86% 29.21 in 1.2 mi WSW 9.2 mph - N/A   Overcast
4:35 PM 17.6 °F 1.7 °F 15.8 °F 93% 29.24 in 0.5 mi NW 18.4 mph 27.6 mph N/A   Overcast
4:55 PM 15.8 °F 1.4 °F 12.2 °F 86% 29.27 in 0.8 mi NNW 13.8 mph 25.3 mph N/A   Overcast
5:15 PM 14.0 °F -2.0 °F 10.4 °F 86% 29.29 in 0.5 mi NW 16.1 mph 24.2 mph N/A   Overcast
5:35 PM 12.2 °F -3.7 °F 8.6 °F 85% 29.32 in 0.8 mi NNW 15.0 mph 27.6 mph N/A   Overcast
5:55 PM 12.2 °F -5.3 °F 8.6 °F 85% 29.34 in 1.8 mi NW 18.4 mph 24.2 mph N/A   Overcast
6:15 PM 10.4 °F -4.1 °F 6.8 °F 85% 29.37 in 2.0 mi NW 11.5 mph 25.3 mph N/A   Overcast
6:35 PM 10.4 °F -7.7 °F 6.8 °F 85% 29.38 in 2.0 mi NW 18.4 mph 26.5 mph N/A   Overcast
6:55 PM 10.4 °F -6.0 °F 6.8 °F 85% 29.40 in 2.5 mi NW 15.0 mph 21.9 mph N/A   Overcast
7:15 PM 10.4 °F -4.8 °F 6.8 °F 85% 29.42 in 1.5 mi NW 12.7 mph - N/A   Overcast
7:35 PM 10.4 °F -3.3 °F 6.8 °F 85% 29.43 in 1.8 mi WNW 10.4 mph 17.3 mph N/A   Overcast
7:55 PM 10.4 °F -4.8 °F 5.0 °F 79% 29.44 in 3.0 mi NW 12.7 mph 19.6 mph N/A   Overcast
8:15 PM 10.4 °F -4.8 °F 3.2 °F 73% 29.45 in 5.0 mi WNW 12.7 mph 18.4 mph N/A   Overcast
8:35 PM 8.6 °F -8.9 °F 1.4 °F 73% 29.46 in 10.0 mi NW 16.1 mph - N/A   Overcast
8:55 PM 8.6 °F -7.0 °F -0.4 °F 67% 29.47 in 6.0 mi WNW 12.7 mph 19.6 mph N/A   Overcast
9:15 PM 8.6 °F -8.3 °F -0.4 °F 67% 29.47 in 10.0 mi WNW 15.0 mph 20.7 mph N/A   Mostly Cloudy
9:35 PM 8.6 °F -7.0 °F -0.4 °F 67% 29.49 in 5.0 mi WNW 12.7 mph 19.6 mph N/A   Mostly Cloudy
9:55 PM 8.6 °F -7.7 °F 1.4 °F 73% 29.49 in 3.0 mi WNW 13.8 mph 21.9 mph N/A   Overcast
10:15 PM 8.6 °F -5.5 °F 1.4 °F 73% 29.50 in 5.0 mi WNW 10.4 mph - N/A   Overcast
10:35 PM 8.6 °F -6.3 °F 1.4 °F 73% 29.51 in 3.0 mi WNW 11.5 mph 19.6 mph N/A   Overcast
10:55 PM 8.6 °F -4.7 °F 3.2 °F 79% 29.52 in 1.8 mi West 9.2 mph - N/A   Overcast
11:15 PM 8.6 °F -4.7 °F 3.2 °F 79% 29.52 in 1.8 mi West 9.2 mph - N/A   Overcast
11:35 PM 6.8 °F -6.9 °F 1.4 °F 79% 29.53 in 2.5 mi West 9.2 mph - N/A   Overcast
11:55 PM 6.8 °F -8.6 °F 1.4 °F 79% 29.54 in 3.0 mi West 11.5 mph 16.1 mph N/A   Overcast